sensor_id;sensor_type;location;lat;lon;timestamp;pressure;altitude;pressure_sealevel;temperature;humidity
74230;BME280;62589;12.568;99.958;2022-09-01T00:02:24;100684.69;;;33.47;59.78
74230;BME280;62589;12.568;99.958;2022-09-01T00:04:54;100687.50;;;33.51;59.37
74230;BME280;62589;12.568;99.958;2022-09-01T00:07:28;100687.50;;;33.51;59.47
74230;BME280;62589;12.568;99.958;2022-09-01T00:09:55;100689.09;;;33.56;59.55
74230;BME280;62589;12.568;99.958;2022-09-01T00:12:21;100691.50;;;33.57;59.40
74230;BME280;62589;12.568;99.958;2022-09-01T00:14:50;100683.53;;;33.59;59.04
74230;BME280;62589;12.568;99.958;2022-09-01T00:17:17;100680.38;;;33.61;58.82
74230;BME280;62589;12.568;99.958;2022-09-01T00:19:43;100686.34;;;33.63;59.06
74230;BME280;62589;12.568;99.958;2022-09-01T00:22:10;100694.69;;;33.63;58.75
74230;BME280;62589;12.568;99.958;2022-09-01T00:24:37;100698.66;;;33.65;58.77
74230;BME280;62589;12.568;99.958;2022-09-01T00:27:03;100702.63;;;33.68;58.75
74230;BME280;62589;12.568;99.958;2022-09-01T00:29:30;100711.38;;;33.70;58.76
74230;BME280;62589;12.568;99.958;2022-09-01T00:31:57;100726.13;;;33.74;58.70
74230;BME280;62589;12.568;99.958;2022-09-01T00:34:24;100730.50;;;33.75;58.64
74230;BME280;62589;12.568;99.958;2022-09-01T00:36:50;100728.94;;;33.77;58.93
74230;BME280;62589;12.568;99.958;2022-09-01T00:39:17;100733.31;;;33.78;58.78
74230;BME280;62589;12.568;99.958;2022-09-01T00:41:44;100730.94;;;33.81;59.20
74230;BME280;62589;12.568;99.958;2022-09-01T00:44:15;100732.13;;;33.83;58.96
74230;BME280;62589;12.568;99.958;2022-09-01T00:46:46;100743.28;;;33.87;59.21
74230;BME280;62589;12.568;99.958;2022-09-01T00:49:35;100756.00;;;33.95;59.32
74230;BME280;62589;12.568;99.958;2022-09-01T00:52:13;100750.03;;;33.93;59.52
74230;BME280;62589;12.568;99.958;2022-09-01T00:54:47;100752.44;;;33.98;59.58
74230;BME280;62589;12.568;99.958;2022-09-01T00:57:15;100751.66;;;34.01;59.63
74230;BME280;62589;12.568;99.958;2022-09-01T01:02:25;100747.25;;;34.10;59.15
74230;BME280;62589;12.568;99.958;2022-09-01T01:04:52;100756.81;;;34.13;58.84
74230;BME280;62589;12.568;99.958;2022-09-01T01:07:21;100760.41;;;34.17;58.71
74230;BME280;62589;12.568;99.958;2022-09-01T01:09:48;100762.81;;;34.19;59.05
74230;BME280;62589;12.568;99.958;2022-09-01T01:12:15;100772.75;;;34.23;58.73
74230;BME280;62589;12.568;99.958;2022-09-01T01:14:44;100766.78;;;34.25;58.41
74230;BME280;62589;12.568;99.958;2022-09-01T01:17:16;100771.22;;;34.29;58.57
74230;BME280;62589;12.568;99.958;2022-09-01T01:19:47;100773.56;;;34.34;58.16
74230;BME280;62589;12.568;99.958;2022-09-01T01:22:42;100769.19;;;34.44;58.33
74230;BME280;62589;12.568;99.958;2022-09-01T01:25:22;100780.75;;;34.50;58.83
74230;BME280;62589;12.568;99.958;2022-09-01T01:27:49;100779.53;;;34.58;58.00
74230;BME280;62589;12.568;99.958;2022-09-01T01:30:17;100781.53;;;34.68;57.81
74230;BME280;62589;12.568;99.958;2022-09-01T01:32:44;100781.91;;;34.77;57.64
74230;BME280;62589;12.568;99.958;2022-09-01T01:35:15;100791.88;;;34.85;57.92
74230;BME280;62589;12.568;99.958;2022-09-01T01:37:44;100787.84;;;34.93;57.21
74230;BME280;62589;12.568;99.958;2022-09-01T01:40:16;100795.81;;;35.02;57.11
74230;BME280;62589;12.568;99.958;2022-09-01T01:42:48;100800.59;;;35.08;57.25
74230;BME280;62589;12.568;99.958;2022-09-01T01:45:17;100790.59;;;35.14;56.73
74230;BME280;62589;12.568;99.958;2022-09-01T01:47:46;100794.16;;;35.26;56.93
74230;BME280;62589;12.568;99.958;2022-09-01T01:50:18;100803.66;;;35.46;56.36
74230;BME280;62589;12.568;99.958;2022-09-01T01:52:45;100793.31;;;35.43;56.35
74230;BME280;62589;12.568;99.958;2022-09-01T01:55:13;100795.69;;;35.48;56.57
74230;BME280;62589;12.568;99.958;2022-09-01T01:57:45;100799.66;;;35.54;56.75
74230;BME280;62589;12.568;99.958;2022-09-01T02:00:22;100796.00;;;35.61;56.17
74230;BME280;62589;12.568;99.958;2022-09-01T02:02:50;100797.16;;;35.70;55.89
74230;BME280;62589;12.568;99.958;2022-09-01T02:05:30;100795.53;;;35.76;55.43
74230;BME280;62589;12.568;99.958;2022-09-01T02:08:00;100787.53;;;35.82;55.17
74230;BME280;62589;12.568;99.958;2022-09-01T02:10:34;100791.47;;;35.92;54.84
74230;BME280;62589;12.568;99.958;2022-09-01T02:13:03;100783.88;;;35.96;54.18
74230;BME280;62589;12.568;99.958;2022-09-01T02:15:33;100781.00;;;36.03;54.73
74230;BME280;62589;12.568;99.958;2022-09-01T02:18:00;100779.38;;;36.09;53.95
74230;BME280;62589;12.568;99.958;2022-09-01T02:20:27;100787.72;;;36.12;53.85
74230;BME280;62589;12.568;99.958;2022-09-01T02:22:55;100785.31;;;36.14;53.46
74230;BME280;62589;12.568;99.958;2022-09-01T02:25:21;100783.69;;;36.17;53.76
74230;BME280;62589;12.568;99.958;2022-09-01T02:27:48;100794.88;;;36.17;53.50
74230;BME280;62589;12.568;99.958;2022-09-01T02:30:20;100791.63;;;36.22;53.12
74230;BME280;62589;12.568;99.958;2022-09-01T02:32:52;100794.84;;;36.24;52.87
74230;BME280;62589;12.568;99.958;2022-09-01T02:35:19;100796.03;;;36.23;52.83
74230;BME280;62589;12.568;99.958;2022-09-01T02:37:45;100796.81;;;36.27;52.78
74230;BME280;62589;12.568;99.958;2022-09-01T02:40:14;100798.03;;;36.26;53.10
74230;BME280;62589;12.568;99.958;2022-09-01T02:42:41;100796.41;;;36.29;53.81
74230;BME280;62589;12.568;99.958;2022-09-01T02:45:08;100799.22;;;36.29;53.39
74230;BME280;62589;12.568;99.958;2022-09-01T02:47:42;100794.00;;;36.31;52.77
74230;BME280;62589;12.568;99.958;2022-09-01T02:50:11;100798.41;;;36.32;52.93
74230;BME280;62589;12.568;99.958;2022-09-01T02:52:45;100803.97;;;36.32;52.81
74230;BME280;62589;12.568;99.958;2022-09-01T02:55:14;100797.97;;;36.33;52.05
74230;BME280;62589;12.568;99.958;2022-09-01T02:57:50;100792.72;;;36.39;52.26
74230;BME280;62589;12.568;99.958;2022-09-01T03:00:20;100793.88;;;36.45;52.39
74230;BME280;62589;12.568;99.958;2022-09-01T03:03:00;100791.84;;;36.49;52.48
74230;BME280;62589;12.568;99.958;2022-09-01T03:05:30;100801.81;;;36.54;52.17
74230;BME280;62589;12.568;99.958;2022-09-01T03:08:04;100805.00;;;36.52;51.83
74230;BME280;62589;12.568;99.958;2022-09-01T03:10:35;100806.97;;;36.55;51.20
74230;BME280;62589;12.568;99.958;2022-09-01T03:13:05;100802.97;;;36.56;50.45
74230;BME280;62589;12.568;99.958;2022-09-01T03:15:35;100797.31;;;36.60;50.53
74230;BME280;62589;12.568;99.958;2022-09-01T03:18:02;100793.69;;;36.66;50.85
74230;BME280;62589;12.568;99.958;2022-09-01T03:20:30;100796.84;;;36.68;50.77
74230;BME280;62589;12.568;99.958;2022-09-01T03:23:01;100795.25;;;36.74;51.16
74230;BME280;62589;12.568;99.958;2022-09-01T03:25:28;100793.97;;;36.79;50.66
74230;BME280;62589;12.568;99.958;2022-09-01T03:27:56;100797.13;;;36.85;51.00
74230;BME280;62589;12.568;99.958;2022-09-01T03:30:30;100794.72;;;36.83;49.44
74230;BME280;62589;12.568;99.958;2022-09-01T03:32:58;100793.50;;;36.88;49.74
74230;BME280;62589;12.568;99.958;2022-09-01T03:35:28;100793.06;;;36.89;49.84
74230;BME280;62589;12.568;99.958;2022-09-01T03:37:58;100794.63;;;36.94;49.89
74230;BME280;62589;12.568;99.958;2022-09-01T03:40:28;100793.81;;;36.97;49.63
74230;BME280;62589;12.568;99.958;2022-09-01T03:42:59;100790.09;;;37.03;51.02
74230;BME280;62589;12.568;99.958;2022-09-01T03:45:26;100784.84;;;37.09;50.40
74230;BME280;62589;12.568;99.958;2022-09-01T03:47:55;100787.19;;;37.14;50.01
74230;BME280;62589;12.568;99.958;2022-09-01T03:50:23;100785.97;;;37.19;50.26
74230;BME280;62589;12.568;99.958;2022-09-01T03:52:53;100779.53;;;37.22;50.61
74230;BME280;62589;12.568;99.958;2022-09-01T03:55:25;100776.66;;;37.29;50.42
74230;BME280;62589;12.568;99.958;2022-09-01T03:57:56;100774.19;;;37.34;51.09
74230;BME280;62589;12.568;99.958;2022-09-01T04:00:24;100776.94;;;37.38;50.38
74230;BME280;62589;12.568;99.958;2022-09-01T04:02:57;100765.31;;;37.39;50.18
74230;BME280;62589;12.568;99.958;2022-09-01T04:05:25;100772.44;;;37.44;50.14
74230;BME280;62589;12.568;99.958;2022-09-01T04:07:59;100768.03;;;37.43;49.26
74230;BME280;62589;12.568;99.958;2022-09-01T04:10:29;100769.63;;;37.44;48.98
74230;BME280;62589;12.568;99.958;2022-09-01T04:13:01;100778.41;;;37.46;49.31
74230;BME280;62589;12.568;99.958;2022-09-01T04:15:28;100772.81;;;37.46;49.71
74230;BME280;62589;12.568;99.958;2022-09-01T04:17:57;100776.38;;;37.50;49.85
74230;BME280;62589;12.568;99.958;2022-09-01T04:20:36;100769.53;;;37.51;50.00
74230;BME280;62589;12.568;99.958;2022-09-01T04:23:23;100761.91;;;37.55;49.88
74230;BME280;62589;12.568;99.958;2022-09-01T04:25:59;100759.47;;;37.57;50.05
74230;BME280;62589;12.568;99.958;2022-09-01T04:28:37;100751.44;;;37.59;49.51
74230;BME280;62589;12.568;99.958;2022-09-01T04:31:07;100758.22;;;37.62;49.21
74230;BME280;62589;12.568;99.958;2022-09-01T04:33:36;100749.81;;;37.62;48.37
74230;BME280;62589;12.568;99.958;2022-09-01T04:36:14;100740.13;;;37.66;48.06
74230;BME280;62589;12.568;99.958;2022-09-01T04:38:45;100738.13;;;37.67;48.41
74230;BME280;62589;12.568;99.958;2022-09-01T04:41:12;100728.09;;;37.69;48.70
74230;BME280;62589;12.568;99.958;2022-09-01T04:43:47;100733.69;;;37.69;48.76
74230;BME280;62589;12.568;99.958;2022-09-01T04:46:15;100726.09;;;37.70;47.96
74230;BME280;62589;12.568;99.958;2022-09-01T04:48:43;100725.25;;;37.73;47.58
74230;BME280;62589;12.568;99.958;2022-09-01T04:51:11;100718.41;;;37.74;47.47
74230;BME280;62589;12.568;99.958;2022-09-01T04:53:41;100714.44;;;37.71;47.67
74230;BME280;62589;12.568;99.958;2022-09-01T04:56:15;100714.44;;;37.71;47.77
74230;BME280;62589;12.568;99.958;2022-09-01T04:58:45;100707.25;;;37.70;46.99
74230;BME280;62589;12.568;99.958;2022-09-01T05:01:22;100702.03;;;37.72;47.09
74230;BME280;62589;12.568;99.958;2022-09-01T05:03:49;100697.59;;;37.75;46.69
74230;BME280;62589;12.568;99.958;2022-09-01T05:06:22;100685.16;;;37.76;47.31
74230;BME280;62589;12.568;99.958;2022-09-01T05:08:53;100679.16;;;37.77;47.87
74230;BME280;62589;12.568;99.958;2022-09-01T05:11:22;100677.94;;;37.78;47.36
74230;BME280;62589;12.568;99.958;2022-09-01T05:13:50;100673.50;;;37.81;47.14
74230;BME280;62589;12.568;99.958;2022-09-01T05:16:23;100671.81;;;37.83;47.09
74230;BME280;62589;12.568;99.958;2022-09-01T05:18:51;100659.38;;;37.84;46.44
74230;BME280;62589;12.568;99.958;2022-09-01T05:21:20;100647.06;;;37.82;46.58
74230;BME280;62589;12.568;99.958;2022-09-01T05:23:49;100641.31;;;37.89;47.06
74230;BME280;62589;12.568;99.958;2022-09-01T05:26:20;100638.44;;;37.93;47.00
74230;BME280;62589;12.568;99.958;2022-09-01T05:28:50;100628.03;;;37.93;46.98
74230;BME280;62589;12.568;99.958;2022-09-01T05:31:25;100623.22;;;37.94;46.72
74230;BME280;62589;12.568;99.958;2022-09-01T05:33:53;100620.00;;;37.95;46.42
74230;BME280;62589;12.568;99.958;2022-09-01T05:36:23;100613.09;;;38.00;46.62
74230;BME280;62589;12.568;99.958;2022-09-01T05:38:51;100611.53;;;37.99;46.17
74230;BME280;62589;12.568;99.958;2022-09-01T05:41:20;100597.50;;;37.99;46.64
74230;BME280;62589;12.568;99.958;2022-09-01T05:43:49;100591.47;;;38.00;46.42
74230;BME280;62589;12.568;99.958;2022-09-01T05:46:20;100591.91;;;37.99;46.38
74230;BME280;62589;12.568;99.958;2022-09-01T05:48:49;100593.84;;;38.02;46.16
74230;BME280;62589;12.568;99.958;2022-09-01T05:51:19;100595.06;;;38.01;46.22
74230;BME280;62589;12.568;99.958;2022-09-01T05:53:48;100596.22;;;38.03;46.43
74230;BME280;62589;12.568;99.958;2022-09-01T05:56:20;100585.00;;;38.03;46.10
74230;BME280;62589;12.568;99.958;2022-09-01T05:58:50;100589.38;;;38.04;46.17
74230;BME280;62589;12.568;99.958;2022-09-01T06:01:23;100586.22;;;38.02;46.33
74230;BME280;62589;12.568;99.958;2022-09-01T06:03:56;100574.56;;;38.04;46.45
74230;BME280;62589;12.568;99.958;2022-09-01T06:06:25;100575.44;;;38.01;46.86
74230;BME280;62589;12.568;99.958;2022-09-01T06:08:53;100565.72;;;38.05;47.19
74230;BME280;62589;12.568;99.958;2022-09-01T06:11:24;100561.72;;;38.06;46.97
74230;BME280;62589;12.568;99.958;2022-09-01T06:13:52;100556.97;;;38.03;47.13
74230;BME280;62589;12.568;99.958;2022-09-01T06:16:21;100552.50;;;38.06;47.09
74230;BME280;62589;12.568;99.958;2022-09-01T06:18:50;100549.69;;;38.06;46.47
74230;BME280;62589;12.568;99.958;2022-09-01T06:21:20;100541.72;;;38.04;47.50
74230;BME280;62589;12.568;99.958;2022-09-01T06:23:50;100549.69;;;38.06;47.52
74230;BME280;62589;12.568;99.958;2022-09-01T06:26:23;100549.00;;;38.02;46.68
74230;BME280;62589;12.568;99.958;2022-09-01T06:28:56;100539.88;;;37.98;46.63
74230;BME280;62589;12.568;99.958;2022-09-01T06:31:25;100532.31;;;37.95;45.96
74230;BME280;62589;12.568;99.958;2022-09-01T06:33:53;100535.97;;;37.92;46.83
74230;BME280;62589;12.568;99.958;2022-09-01T06:36:21;100529.09;;;37.96;46.69
74230;BME280;62589;12.568;99.958;2022-09-01T06:38:52;100527.06;;;37.97;47.16
74230;BME280;62589;12.568;99.958;2022-09-01T06:41:21;100512.28;;;37.96;46.80
74230;BME280;62589;12.568;99.958;2022-09-01T06:43:49;100506.25;;;37.98;46.87
74230;BME280;62589;12.568;99.958;2022-09-01T06:46:18;100503.44;;;37.98;46.90
74230;BME280;62589;12.568;99.958;2022-09-01T06:48:46;100501.00;;;38.00;46.17
74230;BME280;62589;12.568;99.958;2022-09-01T06:51:19;100496.19;;;38.00;46.52
74230;BME280;62589;12.568;99.958;2022-09-01T06:53:48;100490.47;;;38.04;46.87
74230;BME280;62589;12.568;99.958;2022-09-01T06:56:16;100492.06;;;38.05;46.66
74230;BME280;62589;12.568;99.958;2022-09-01T06:58:45;100483.22;;;38.06;46.47
74230;BME280;62589;12.568;99.958;2022-09-01T07:01:15;100483.31;;;38.03;46.00
74230;BME280;62589;12.568;99.958;2022-09-01T07:03:44;100473.31;;;38.02;46.00
74230;BME280;62589;12.568;99.958;2022-09-01T07:06:13;100474.44;;;38.04;46.00
74230;BME280;62589;12.568;99.958;2022-09-01T07:08:41;100478.84;;;38.05;46.35
74230;BME280;62589;12.568;99.958;2022-09-01T07:11:24;100468.06;;;38.04;46.35
74230;BME280;62589;12.568;99.958;2022-09-01T07:13:57;100452.13;;;38.01;45.76
74230;BME280;62589;12.568;99.958;2022-09-01T07:16:27;100460.66;;;37.94;46.11
74230;BME280;62589;12.568;99.958;2022-09-01T07:18:56;100454.56;;;37.99;45.85
74230;BME280;62589;12.568;99.958;2022-09-01T07:21:26;100455.00;;;37.97;46.11
74230;BME280;62589;12.568;99.958;2022-09-01T07:23:54;100441.41;;;37.96;46.13
74230;BME280;62589;12.568;99.958;2022-09-01T07:26:23;100434.59;;;37.97;46.02
74230;BME280;62589;12.568;99.958;2022-09-01T07:28:51;100426.31;;;37.90;45.60
74230;BME280;62589;12.568;99.958;2022-09-01T07:31:20;100409.00;;;37.95;45.46
74230;BME280;62589;12.568;99.958;2022-09-01T07:33:49;100408.94;;;37.98;45.80
74230;BME280;62589;12.568;99.958;2022-09-01T07:36:17;100405.84;;;37.93;46.03
74230;BME280;62589;12.568;99.958;2022-09-01T07:38:44;100399.38;;;37.96;46.04
74230;BME280;62589;12.568;99.958;2022-09-01T07:41:17;100392.13;;;37.98;45.81
74230;BME280;62589;12.568;99.958;2022-09-01T07:43:43;100388.88;;;38.00;46.75
74230;BME280;62589;12.568;99.958;2022-09-01T07:46:10;100380.47;;;38.00;46.99
74230;BME280;62589;12.568;99.958;2022-09-01T07:48:38;100380.19;;;37.94;47.38
74230;BME280;62589;12.568;99.958;2022-09-01T07:51:05;100384.13;;;37.97;47.01
74230;BME280;62589;12.568;99.958;2022-09-01T07:53:33;100386.50;;;37.98;46.92
74230;BME280;62589;12.568;99.958;2022-09-01T07:56:06;100378.97;;;37.95;47.49
74230;BME280;62589;12.568;99.958;2022-09-01T07:58:36;100379.03;;;37.92;47.27
74230;BME280;62589;12.568;99.958;2022-09-01T08:01:14;100379.69;;;37.99;46.92
74230;BME280;62589;12.568;99.958;2022-09-01T08:03:49;100375.31;;;37.98;46.85
74230;BME280;62589;12.568;99.958;2022-09-01T08:06:18;100380.03;;;38.01;46.78
74230;BME280;62589;12.568;99.958;2022-09-01T08:08:48;100381.97;;;37.84;45.81
74230;BME280;62589;12.568;99.958;2022-09-01T08:11:25;100391.47;;;37.91;45.57
74230;BME280;62589;12.568;99.958;2022-09-01T08:13:55;100391.47;;;37.91;46.47
74230;BME280;62589;12.568;99.958;2022-09-01T08:16:25;100397.94;;;37.88;46.70
74230;BME280;62589;12.568;99.958;2022-09-01T08:18:52;100381.84;;;37.92;46.69
74230;BME280;62589;12.568;99.958;2022-09-01T08:21:20;100382.69;;;37.89;47.12
74230;BME280;62589;12.568;99.958;2022-09-01T08:23:51;100377.88;;;37.89;47.33
74230;BME280;62589;12.568;99.958;2022-09-01T08:26:20;100379.47;;;37.90;47.08
74230;BME280;62589;12.568;99.958;2022-09-01T08:28:47;100371.72;;;37.78;46.10
74230;BME280;62589;12.568;99.958;2022-09-01T08:31:16;100375.31;;;37.78;46.03
74230;BME280;62589;12.568;99.958;2022-09-01T08:33:44;100374.97;;;37.76;45.91
74230;BME280;62589;12.568;99.958;2022-09-01T08:36:13;100363.41;;;37.74;45.90
74230;BME280;62589;12.568;99.958;2022-09-01T08:38:41;100349.97;;;37.66;46.53
74230;BME280;62589;12.568;99.958;2022-09-01T08:41:31;100347.53;;;37.68;46.53
74230;BME280;62589;12.568;99.958;2022-09-01T08:47:11;100342.56;;;37.56;45.99
74230;BME280;62589;12.568;99.958;2022-09-01T08:49:40;100345.28;;;37.59;46.20
74230;BME280;62589;12.568;99.958;2022-09-01T08:52:32;100340.47;;;37.60;46.33
74230;BME280;62589;12.568;99.958;2022-09-01T08:57:52;100340.91;;;37.58;46.04
74230;BME280;62589;12.568;99.958;2022-09-01T09:00:24;100345.06;;;37.50;45.75
74230;BME280;62589;12.568;99.958;2022-09-01T09:09:02;100351.81;;;37.53;46.90
74230;BME280;62589;12.568;99.958;2022-09-01T09:11:57;100353.41;;;37.54;46.24
74230;BME280;62589;12.568;99.958;2022-09-01T09:14:58;100356.13;;;37.57;46.45
74230;BME280;62589;12.568;99.958;2022-09-01T09:17:34;100363.81;;;37.53;46.61
74230;BME280;62589;12.568;99.958;2022-09-01T09:20:03;100369.91;;;37.48;46.27
74230;BME280;62589;12.568;99.958;2022-09-01T09:22:32;100364.28;;;37.48;46.77
74230;BME280;62589;12.568;99.958;2022-09-01T09:25:11;100362.00;;;37.43;46.06
74230;BME280;62589;12.568;99.958;2022-09-01T09:27:43;100371.28;;;37.40;46.02
74230;BME280;62589;12.568;99.958;2022-09-01T09:30:29;100365.59;;;37.43;46.25
74230;BME280;62589;12.568;99.958;2022-09-01T09:33:03;100363.38;;;37.35;46.61
74230;BME280;62589;12.568;99.958;2022-09-01T09:35:34;100365.09;;;37.48;45.95
74230;BME280;62589;12.568;99.958;2022-09-01T09:38:22;100364.53;;;37.37;46.15
74230;BME280;62589;12.568;99.958;2022-09-01T09:41:06;100357.78;;;37.35;46.51
74230;BME280;62589;12.568;99.958;2022-09-01T09:43:41;100359.00;;;37.34;47.31
74230;BME280;62589;12.568;99.958;2022-09-01T09:46:32;100353.31;;;37.37;46.70
74230;BME280;62589;12.568;99.958;2022-09-01T09:54:56;100371.84;;;37.31;46.77
74230;BME280;62589;12.568;99.958;2022-09-01T09:57:23;100376.22;;;37.32;46.70
74230;BME280;62589;12.568;99.958;2022-09-01T10:00:06;100375.41;;;37.32;47.29
74230;BME280;62589;12.568;99.958;2022-09-01T10:02:38;100374.19;;;37.33;47.44
74230;BME280;62589;12.568;99.958;2022-09-01T10:08:06;100387.84;;;37.31;47.32
74230;BME280;62589;12.568;99.958;2022-09-01T10:10:43;100391.13;;;37.26;47.31
74230;BME280;62589;12.568;99.958;2022-09-01T10:13:18;100392.72;;;37.27;47.03
74230;BME280;62589;12.568;99.958;2022-09-01T10:15:50;100389.47;;;37.28;47.10
74230;BME280;62589;12.568;99.958;2022-09-01T10:18:20;100389.91;;;37.27;47.23
74230;BME280;62589;12.568;99.958;2022-09-01T10:21:20;100371.09;;;37.27;47.23
74230;BME280;62589;12.568;99.958;2022-09-01T10:23:44;100393.94;;;37.26;47.17
74230;BME280;62589;12.568;99.958;2022-09-01T10:26:31;100390.34;;;37.25;46.84
74230;BME280;62589;12.568;99.958;2022-09-01T10:31:45;100390.09;;;37.16;46.69
74230;BME280;62589;12.568;99.958;2022-09-01T10:34:15;100389.72;;;37.14;46.69
74230;BME280;62589;12.568;99.958;2022-09-01T10:36:45;100393.31;;;37.14;46.73
74230;BME280;62589;12.568;99.958;2022-09-01T10:39:15;100394.94;;;37.12;47.33
74230;BME280;62589;12.568;99.958;2022-09-01T10:41:45;100404.13;;;37.12;47.25
74230;BME280;62589;12.568;99.958;2022-09-01T10:44:24;100399.34;;;37.13;47.46
74230;BME280;62589;12.568;99.958;2022-09-01T10:46:57;100400.97;;;37.10;47.28
74230;BME280;62589;12.568;99.958;2022-09-01T10:50:02;100400.50;;;37.15;47.02
74230;BME280;62589;12.568;99.958;2022-09-01T11:01:10;100384.28;;;37.03;47.16
74230;BME280;62589;12.568;99.958;2022-09-01T11:03:54;100377.53;;;37.01;47.19
74230;BME280;62589;12.568;99.958;2022-09-01T11:09:35;100394.34;;;37.01;48.12
74230;BME280;62589;12.568;99.958;2022-09-01T11:15:05;100405.97;;;36.99;48.42
74230;BME280;62589;12.568;99.958;2022-09-01T11:17:56;100417.94;;;37.00;48.47
74230;BME280;62589;12.568;99.958;2022-09-01T11:20:26;100421.19;;;36.98;48.66
74230;BME280;62589;12.568;99.958;2022-09-01T11:23:03;100423.63;;;36.96;48.74
74230;BME280;62589;12.568;99.958;2022-09-01T11:25:46;100431.59;;;36.98;48.99
74230;BME280;62589;12.568;99.958;2022-09-01T11:28:36;100423.19;;;36.98;49.13
74230;BME280;62589;12.568;99.958;2022-09-01T11:31:18;100421.25;;;36.95;49.35
74230;BME280;62589;12.568;99.958;2022-09-01T11:34:08;100417.28;;;36.92;49.55
74230;BME280;62589;12.568;99.958;2022-09-01T11:36:50;100420.50;;;36.91;49.44
74230;BME280;62589;12.568;99.958;2022-09-01T11:39:42;100423.72;;;36.89;49.40
74230;BME280;62589;12.568;99.958;2022-09-01T11:42:18;100419.88;;;36.79;49.78
74230;BME280;62589;12.568;99.958;2022-09-01T11:44:58;100426.72;;;36.78;49.56
74230;BME280;62589;12.568;99.958;2022-09-01T11:47:47;100427.13;;;36.77;49.62
74230;BME280;62589;12.568;99.958;2022-09-01T11:50:27;100426.00;;;36.71;49.48
74230;BME280;62589;12.568;99.958;2022-09-01T11:53:09;100430.78;;;36.70;49.56
74230;BME280;62589;12.568;99.958;2022-09-01T11:55:43;100439.22;;;36.67;49.57
74230;BME280;62589;12.568;99.958;2022-09-01T11:58:11;100445.50;;;36.78;49.52
74230;BME280;62589;12.568;99.958;2022-09-01T12:00:40;100459.22;;;36.65;49.99
74230;BME280;62589;12.568;99.958;2022-09-01T12:03:23;100452.06;;;36.64;49.93
74230;BME280;62589;12.568;99.958;2022-09-01T12:05:59;100463.66;;;36.63;50.27
74230;BME280;62589;12.568;99.958;2022-09-01T12:08:31;100477.69;;;36.59;50.27
74230;BME280;62589;12.568;99.958;2022-09-01T12:11:11;100476.09;;;36.58;50.27
74230;BME280;62589;12.568;99.958;2022-09-01T12:14:07;100487.75;;;36.57;50.33
74230;BME280;62589;12.568;99.958;2022-09-01T12:16:36;100490.16;;;36.55;50.58
74230;BME280;62589;12.568;99.958;2022-09-01T12:19:05;100506.56;;;36.53;50.63
74230;BME280;62589;12.568;99.958;2022-09-01T12:21:37;100517.38;;;36.51;50.85
74230;BME280;62589;12.568;99.958;2022-09-01T12:24:25;100521.34;;;36.53;50.88
74230;BME280;62589;12.568;99.958;2022-09-01T12:26:53;100514.63;;;36.47;50.97
74230;BME280;62589;12.568;99.958;2022-09-01T12:29:24;100520.22;;;36.47;51.00
74230;BME280;62589;12.568;99.958;2022-09-01T12:31:52;100531.44;;;36.43;51.06
74230;BME280;62589;12.568;99.958;2022-09-01T12:37:28;100553.81;;;36.43;51.30
74230;BME280;62589;12.568;99.958;2022-09-01T12:39:56;100550.69;;;36.38;51.36
74230;BME280;62589;12.568;99.958;2022-09-01T12:42:30;100570.31;;;36.34;51.54
74230;BME280;62589;12.568;99.958;2022-09-01T12:44:59;100568.72;;;36.33;51.69
74230;BME280;62589;12.568;99.958;2022-09-01T12:47:47;100583.09;;;36.35;51.34
74230;BME280;62589;12.568;99.958;2022-09-01T12:50:35;100584.72;;;36.33;51.73
74230;BME280;62589;12.568;99.958;2022-09-01T12:53:03;100596.75;;;36.26;51.84
74230;BME280;62589;12.568;99.958;2022-09-01T12:55:40;100607.56;;;36.24;52.14
74230;BME280;62589;12.568;99.958;2022-09-01T12:58:24;100613.56;;;36.19;52.36
74230;BME280;62589;12.568;99.958;2022-09-01T13:00:56;100622.69;;;36.30;52.45
74230;BME280;62589;12.568;99.958;2022-09-01T13:03:23;100628.41;;;36.16;53.00
74230;BME280;62589;12.568;99.958;2022-09-01T13:05:54;100632.81;;;36.13;52.63
74230;BME280;62589;12.568;99.958;2022-09-01T13:08:26;100629.25;;;36.09;52.71
74230;BME280;62589;12.568;99.958;2022-09-01T13:10:57;100633.25;;;36.08;52.57
74230;BME280;62589;12.568;99.958;2022-09-01T13:13:26;100640.03;;;36.07;52.93
74230;BME280;62589;12.568;99.958;2022-09-01T13:15:56;100633.28;;;36.05;52.86
74230;BME280;62589;12.568;99.958;2022-09-01T13:18:26;100641.66;;;36.05;52.49
74230;BME280;62589;12.568;99.958;2022-09-01T13:20:55;100636.50;;;36.03;52.25
74230;BME280;62589;12.568;99.958;2022-09-01T13:23:22;100650.06;;;36.01;52.43
74230;BME280;62589;12.568;99.958;2022-09-01T13:25:49;100651.28;;;36.00;52.42
74230;BME280;62589;12.568;99.958;2022-09-01T13:30:24;100643.09;;;35.75;53.21
74230;BME280;62589;12.568;99.958;2022-09-01T13:32:53;100651.09;;;35.77;53.03
74230;BME280;62589;12.568;99.958;2022-09-01T13:35:21;100651.06;;;35.80;53.14
74230;BME280;62589;12.568;99.958;2022-09-01T13:37:48;100653.41;;;35.86;52.71
74230;BME280;62589;12.568;99.958;2022-09-01T13:40:17;100649.41;;;35.87;52.83
74230;BME280;62589;12.568;99.958;2022-09-01T13:42:45;100649.41;;;35.87;52.78
74230;BME280;62589;12.568;99.958;2022-09-01T13:45:13;100647.03;;;35.85;53.28
74230;BME280;62589;12.568;99.958;2022-09-01T13:47:42;100644.66;;;35.84;53.24
74230;BME280;62589;12.568;99.958;2022-09-01T13:50:11;100643.06;;;35.83;52.97
74230;BME280;62589;12.568;99.958;2022-09-01T13:52:41;100643.47;;;35.81;52.83